Time;durP1;ratioP1;P1;durP2;ratioP2;P2;SDS_P1;SDS_P2;PMS_P1;PMS_P2;Temp;Humidity;BMP_temperature;BMP_pressure;BME280_temperature;BME280_humidity;BME280_pressure;Samples;Min_cycle;Max_cycle;Signal;HPM_P1;HPM_P2
2024/02/21 00:00:22;;;;;;;6.73;5.10;;;;;;;6.19;100.00;152949.78;5086694;28;21009;-76
2024/02/21 00:02:49;;;;;;;7.90;4.90;;;;;;;6.18;100.00;152947.19;5082862;28;20547;-76
2024/02/21 00:05:16;;;;;;;8.70;4.73;;;;;;;6.19;100.00;152949.78;5088813;28;20924;-77
2024/02/21 00:07:43;;;;;;;8.00;5.60;;;;;;;6.21;100.00;152954.94;5105198;28;20449;-76
2024/02/21 00:10:10;;;;;;;8.20;5.70;;;;;;;6.20;100.00;152952.31;5080311;28;20465;-77
2024/02/21 00:12:37;;;;;;;7.77;4.70;;;;;;;6.19;100.00;152949.78;5088860;28;20441;-77
2024/02/21 00:15:03;;;;;;;6.40;5.00;;;;;;;6.19;100.00;152951.06;5091012;28;20460;-76
2024/02/21 00:17:32;;;;;;;8.13;5.40;;;;;;;6.22;100.00;152957.53;5088123;28;20460;-77
2024/02/21 00:19:58;;;;;;;9.90;5.70;;;;;;;6.18;100.00;152947.19;5084508;28;20430;-77
2024/02/21 00:22:28;;;;;;;8.40;4.70;;;;;;;6.17;100.00;152944.63;5070942;28;20436;-77
2024/02/21 00:24:56;;;;;;;9.20;4.60;;;;;;;6.18;100.00;152947.19;5095846;28;20469;-76
2024/02/21 00:27:22;;;;;;;9.60;5.90;;;;;;;6.17;100.00;152944.63;5100427;28;20473;-77
2024/02/21 00:29:49;;;;;;;12.07;4.63;;;;;;;6.16;100.00;152942.03;5088738;28;20533;-76
2024/02/21 00:32:15;;;;;;;6.53;4.33;;;;;;;6.14;100.00;152939.44;5087307;28;20820;-76
2024/02/21 00:34:42;;;;;;;6.47;5.27;;;;;;;6.17;100.00;152944.63;5090243;28;20445;-76
2024/02/21 00:37:09;;;;;;;7.43;4.20;;;;;;;6.18;100.00;152947.19;5074144;28;20919;-76
2024/02/21 00:39:35;;;;;;;7.00;5.07;;;;;;;6.16;100.00;152942.03;5069377;28;20449;-77
2024/02/21 00:42:03;;;;;;;9.00;4.50;;;;;;;6.16;100.00;152943.31;5088526;28;20787;-77
2024/02/21 00:44:30;;;;;;;6.70;4.60;;;;;;;6.19;100.00;152949.78;5086399;28;20448;-77
2024/02/21 00:46:56;;;;;;;8.63;5.63;;;;;;;6.19;100.00;152951.06;5082609;28;20453;-76
2024/02/21 00:49:23;;;;;;;8.50;5.40;;;;;;;6.21;100.00;152956.22;5067569;28;20486;-76
2024/02/21 00:51:50;;;;;;;11.90;4.57;;;;;;;6.22;100.00;152957.53;5087226;28;20451;-76
2024/02/21 00:54:16;;;;;;;7.07;4.33;;;;;;;6.21;100.00;152954.94;5085282;28;20426;-77
2024/02/21 00:56:43;;;;;;;6.40;4.60;;;;;;;6.23;100.00;152960.06;5077341;28;20445;-76
2024/02/21 00:59:11;;;;;;;8.30;5.03;;;;;;;6.22;100.00;152958.81;5078979;28;21107;-77
2024/02/21 01:01:38;;;;;;;7.57;4.53;;;;;;;6.22;100.00;152957.53;5086649;28;20503;-76
2024/02/21 01:04:04;;;;;;;7.10;4.70;;;;;;;6.23;100.00;152960.06;5086163;28;20490;-76
2024/02/21 01:06:31;;;;;;;6.57;4.60;;;;;;;6.24;100.00;152963.97;5090595;28;20939;-76
2024/02/21 01:08:58;;;;;;;7.23;5.00;;;;;;;6.24;100.00;152963.97;5088704;28;20468;-76
2024/02/21 01:11:24;;;;;;;7.77;4.60;;;;;;;6.23;100.00;152961.38;5065346;28;20450;-77
2024/02/21 01:13:51;;;;;;;9.00;5.27;;;;;;;6.25;100.00;152965.28;5069338;28;20461;-76
2024/02/21 01:16:19;;;;;;;4.90;4.10;;;;;;;6.24;100.00;152963.97;5086603;28;20456;-76
2024/02/21 01:18:45;;;;;;;7.83;4.67;;;;;;;6.23;100.00;152960.06;5086490;28;20457;-76
2024/02/21 01:21:12;;;;;;;5.13;4.30;;;;;;;6.24;100.00;152962.66;5087111;28;20510;-77
2024/02/21 01:23:38;;;;;;;7.27;4.47;;;;;;;6.24;100.00;152963.97;5092966;28;20531;-76
2024/02/21 01:26:07;;;;;;;8.70;5.00;;;;;;;6.24;100.00;152963.97;5092072;28;20464;-76
2024/02/21 01:28:34;;;;;;;8.40;4.73;;;;;;;6.23;100.00;152961.38;5085906;28;20532;-76
2024/02/21 01:31:01;;;;;;;8.13;5.27;;;;;;;6.22;100.00;152957.53;5087347;28;21065;-77
2024/02/21 01:33:34;;;;;;;7.07;5.30;;;;;;;6.21;100.00;152954.94;5082397;28;20966;-77
2024/02/21 01:36:01;;;;;;;6.73;4.20;;;;;;;6.20;100.00;152953.63;5086481;28;20568;-76
2024/02/21 01:38:28;;;;;;;5.03;4.27;;;;;;;6.23;100.00;152960.06;5086789;28;20449;-76
2024/02/21 01:40:54;;;;;;;7.90;4.03;;;;;;;6.22;100.00;152957.53;5085442;28;20959;-77
2024/02/21 01:43:21;;;;;;;8.13;4.60;;;;;;;6.19;100.00;152951.06;5089896;28;20441;-76
2024/02/21 01:45:51;;;;;;;9.03;4.17;;;;;;;6.20;100.00;152953.63;5083651;28;20444;-76
2024/02/21 01:48:18;;;;;;;5.07;4.00;;;;;;;6.19;100.00;152949.78;5088826;28;20480;-76
2024/02/21 01:50:46;;;;;;;6.53;4.70;;;;;;;6.20;100.00;152952.31;5089733;28;20461;-76
2024/02/21 01:53:18;;;;;;;4.73;3.63;;;;;;;6.20;100.00;152952.31;5087208;28;20831;-77
2024/02/21 01:55:45;;;;;;;4.90;3.73;;;;;;;6.16;100.00;152942.03;5103711;28;20441;-77
2024/02/21 01:58:13;;;;;;;4.73;3.97;;;;;;;6.14;100.00;152938.19;5065481;28;21011;-77
2024/02/21 02:00:40;;;;;;;6.20;4.23;;;;;;;6.14;100.00;152939.44;5113084;27;20487;-76
2024/02/21 02:03:07;;;;;;;5.93;3.80;;;;;;;6.16;100.00;152943.31;5111492;27;20532;-77
2024/02/21 02:05:34;;;;;;;6.70;3.70;;;;;;;6.18;100.00;152947.19;5115079;27;20444;-77
2024/02/21 02:08:02;;;;;;;6.33;3.57;;;;;;;6.16;100.00;152942.03;5114896;27;20464;-76
2024/02/21 02:10:28;;;;;;;4.87;3.87;;;;;;;6.13;100.00;152936.88;5115358;27;20472;-77
2024/02/21 02:12:55;;;;;;;5.33;3.90;;;;;;;6.14;100.00;152939.44;5091759;27;20479;-76
2024/02/21 02:15:21;;;;;;;5.17;4.23;;;;;;;6.13;100.00;152936.88;5110822;27;20847;-76
2024/02/21 02:17:48;;;;;;;9.70;4.20;;;;;;;6.16;100.00;152942.03;5095232;27;21161;-77
2024/02/21 02:20:15;;;;;;;6.80;3.90;;;;;;;6.15;100.00;152940.72;5112974;27;20432;-76
2024/02/21 02:22:44;;;;;;;5.50;4.00;;;;;;;6.17;100.00;152944.63;5107712;28;20969;-76
2024/02/21 02:25:12;;;;;;;8.57;4.70;;;;;;;6.14;100.00;152938.19;5114194;27;20443;-76
2024/02/21 02:27:45;;;;;;;5.60;3.37;;;;;;;6.16;100.00;152942.03;5091842;27;20460;-77
2024/02/21 02:30:13;;;;;;;7.80;4.03;;;;;;;6.16;100.00;152943.31;5092941;27;20471;-77
2024/02/21 02:32:39;;;;;;;7.50;4.50;;;;;;;6.17;100.00;152944.63;5079331;27;20444;-77
2024/02/21 02:35:06;;;;;;;6.07;4.30;;;;;;;6.17;100.00;152945.88;5110818;27;20452;-76
2024/02/21 02:37:32;;;;;;;5.13;4.50;;;;;;;6.16;100.00;152942.03;5088573;27;20459;-77
2024/02/21 02:39:59;;;;;;;5.70;4.00;;;;;;;6.13;100.00;152936.88;5108003;27;20999;-77
2024/02/21 02:42:27;;;;;;;6.37;4.53;;;;;;;6.14;100.00;152939.44;5111760;27;20463;-77
2024/02/21 02:44:54;;;;;;;6.83;4.23;;;;;;;6.14;100.00;152939.44;5107368;27;20435;-77
2024/02/21 02:47:20;;;;;;;8.07;4.67;;;;;;;6.16;100.00;152943.31;5093650;28;21083;-77
2024/02/21 02:49:50;;;;;;;7.60;4.07;;;;;;;6.16;100.00;152943.31;5119879;27;20853;-76
2024/02/21 02:52:17;;;;;;;9.73;4.43;;;;;;;6.17;100.00;152944.63;5102508;28;20552;-77
2024/02/21 02:54:43;;;;;;;6.10;3.90;;;;;;;6.18;100.00;152947.19;5094190;28;20428;-77
2024/02/21 02:57:10;;;;;;;6.23;3.60;;;;;;;6.19;100.00;152949.78;5073070;28;20513;-77
2024/02/21 02:59:37;;;;;;;7.83;4.30;;;;;;;6.20;100.00;152952.31;5092238;27;20432;-77
2024/02/21 03:02:04;;;;;;;11.63;3.57;;;;;;;6.17;100.00;152944.63;5087812;27;20487;-77
2024/02/21 03:04:31;;;;;;;6.97;4.20;;;;;;;6.17;100.00;152945.88;5092867;27;20799;-77
2024/02/21 03:06:57;;;;;;;7.50;4.17;;;;;;;6.18;100.00;152947.19;5088214;28;20444;-76
2024/02/21 03:09:24;;;;;;;5.60;3.00;;;;;;;6.22;100.00;152957.53;5078247;28;21222;-77
2024/02/21 03:11:50;;;;;;;4.60;3.10;;;;;;;6.22;100.00;152957.53;5109046;27;20479;-77
2024/02/21 03:14:17;;;;;;;3.50;3.13;;;;;;;6.21;100.00;152954.94;5071386;28;20550;-76
2024/02/21 03:16:45;;;;;;;4.33;2.80;;;;;;;6.23;100.00;152960.06;5092675;28;20464;-77
2024/02/21 03:19:11;;;;;;;7.67;3.77;;;;;;;6.24;100.00;152962.66;5103301;28;20518;-77
2024/02/21 03:21:38;;;;;;;5.20;3.57;;;;;;;6.23;100.00;152960.06;5078621;28;20811;-76
2024/02/21 03:24:06;;;;;;;6.63;3.80;;;;;;;6.22;100.00;152957.53;5123504;27;20439;-77
2024/02/21 03:26:33;;;;;;;10.10;2.87;;;;;;;6.19;100.00;152951.06;5095788;28;20443;-77
2024/02/21 03:28:59;;;;;;;4.10;3.10;;;;;;;6.21;100.00;152956.22;5092180;28;20475;-77
2024/02/21 03:31:26;;;;;;;9.60;3.50;;;;;;;6.19;100.00;152951.06;5090033;28;20495;-77
2024/02/21 03:33:53;;;;;;;6.80;4.50;;;;;;;6.21;100.00;152954.94;5095754;28;20779;-77
2024/02/21 03:36:20;;;;;;;4.07;3.37;;;;;;;6.19;100.00;152949.78;5094392;28;20455;-76
2024/02/21 03:38:47;;;;;;;8.17;3.90;;;;;;;6.20;100.00;152952.31;5095866;28;20535;-77
2024/02/21 03:41:14;;;;;;;7.67;3.70;;;;;;;6.16;100.00;152943.31;5095154;28;21137;-76
2024/02/21 03:43:40;;;;;;;6.20;3.07;;;;;;;6.17;100.00;152945.88;5094613;28;20436;-77
2024/02/21 03:46:07;;;;;;;7.23;3.70;;;;;;;6.16;100.00;152942.03;5076337;28;20443;-77
2024/02/21 03:48:34;;;;;;;8.13;3.40;;;;;;;6.14;100.00;152938.19;5092841;28;20512;-77
2024/02/21 03:51:02;;;;;;;4.00;3.07;;;;;;;6.15;100.00;152940.72;5111421;27;20475;-76
2024/02/21 03:53:28;;;;;;;6.13;3.60;;;;;;;6.13;100.00;152936.88;5099242;28;20456;-77
2024/02/21 03:55:55;;;;;;;9.10;3.87;;;;;;;6.13;100.00;152935.59;5111815;27;20880;-77
2024/02/21 03:58:22;;;;;;;5.80;3.73;;;;;;;6.12;100.00;152934.28;5094434;28;20472;-77
2024/02/21 04:00:48;;;;;;;6.43;3.40;;;;;;;6.10;100.00;152929.13;5089724;28;20533;-76
2024/02/21 04:03:15;;;;;;;9.83;3.43;;;;;;;6.10;100.00;152929.13;5087252;28;20522;-76
2024/02/21 04:05:41;;;;;;;5.00;3.27;;;;;;;6.09;100.00;152926.53;5104926;28;20456;-77
2024/02/21 04:08:09;;;;;;;5.67;3.60;;;;;;;6.11;100.00;152931.72;5087367;28;20461;-76
2024/02/21 04:10:36;;;;;;;3.50;3.10;;;;;;;6.09;100.00;152926.53;5091180;28;21005;-77
2024/02/21 04:13:03;;;;;;;7.33;3.33;;;;;;;6.11;100.00;152930.44;5089002;28;20483;-76
2024/02/21 04:15:29;;;;;;;5.03;3.00;;;;;;;6.11;100.00;152931.72;5085397;28;20457;-77
2024/02/21 04:17:56;;;;;;;4.73;3.20;;;;;;;6.12;100.00;152934.28;5088926;28;20433;-77
2024/02/21 04:20:23;;;;;;;5.43;3.13;;;;;;;6.09;100.00;152926.53;5084907;28;20448;-77
2024/02/21 04:22:49;;;;;;;5.40;3.17;;;;;;;6.11;100.00;152931.72;5082953;28;20557;-77
2024/02/21 04:25:17;;;;;;;5.50;3.13;;;;;;;6.09;100.00;152925.22;5084744;28;20439;-77
2024/02/21 04:27:44;;;;;;;8.57;3.40;;;;;;;6.08;100.00;152923.97;5094628;28;20463;-77
2024/02/21 04:30:11;;;;;;;4.77;3.07;;;;;;;6.05;100.00;152916.25;5087735;28;20461;-77
2024/02/21 04:32:37;;;;;;;4.10;2.57;;;;;;;6.03;100.00;152911.09;5098604;28;20553;-77
2024/02/21 04:35:04;;;;;;;5.17;3.03;;;;;;;6.01;100.00;152905.88;5087525;28;20449;-77
2024/02/21 04:37:31;;;;;;;4.97;3.10;;;;;;;5.98;100.00;152898.16;5082675;28;20452;-77
2024/02/21 04:39:58;;;;;;;6.70;3.50;;;;;;;5.97;100.00;152895.59;5086843;28;20535;-77
2024/02/21 04:42:26;;;;;;;5.37;3.20;;;;;;;5.95;100.00;152890.44;5087341;28;20859;-77
2024/02/21 04:44:53;;;;;;;5.40;3.90;;;;;;;5.93;100.00;152885.25;5086833;28;20441;-77
2024/02/21 04:47:19;;;;;;;6.47;3.67;;;;;;;5.91;100.00;152880.09;5086707;28;20453;-77
2024/02/21 04:49:46;;;;;;;4.00;2.80;;;;;;;5.91;100.00;152878.81;5085914;28;20510;-77
2024/02/21 04:52:13;;;;;;;6.73;4.10;;;;;;;5.87;100.00;152869.81;5091646;28;21127;-77
2024/02/21 04:54:39;;;;;;;4.67;3.13;;;;;;;5.86;100.00;152867.22;5087731;28;20455;-77
2024/02/21 04:57:06;;;;;;;6.30;3.43;;;;;;;5.82;100.00;152856.88;5081293;28;20553;-77
2024/02/21 04:59:35;;;;;;;5.47;3.40;;;;;;;5.81;100.00;152854.28;5089980;28;20469;-77
2024/02/21 05:02:01;;;;;;;8.20;3.63;;;;;;;5.77;100.00;152843.94;5091218;28;20540;-77
2024/02/21 05:04:28;;;;;;;6.17;3.43;;;;;;;5.77;100.00;152843.94;5073837;28;20513;-77
2024/02/21 05:06:54;;;;;;;7.97;3.10;;;;;;;5.75;100.00;152837.47;5085268;28;20453;-77
2024/02/21 05:09:21;;;;;;;4.20;2.80;;;;;;;5.71;100.00;152828.47;5111152;28;20476;-77
2024/02/21 05:11:47;;;;;;;5.67;3.00;;;;;;;5.69;100.00;152822.03;5111931;28;20475;-76
2024/02/21 05:14:14;;;;;;;3.60;2.90;;;;;;;5.68;100.00;152819.44;5088232;28;20541;-77
2024/02/21 05:16:42;;;;;;;6.30;2.90;;;;;;;5.66;100.00;152815.59;5116467;27;20511;-76
2024/02/21 05:19:08;;;;;;;4.23;2.90;;;;;;;5.67;100.00;152818.16;5109458;28;20440;-77
2024/02/21 05:21:35;;;;;;;8.63;2.83;;;;;;;5.65;100.00;152813.00;5109579;28;20504;-77
2024/02/21 05:24:01;;;;;;;4.30;3.20;;;;;;;5.60;100.00;152798.81;5110397;27;20603;-77
2024/02/21 05:26:28;;;;;;;6.67;3.30;;;;;;;5.57;100.00;152792.38;5073968;28;20453;-77
2024/02/21 05:28:55;;;;;;;8.40;3.20;;;;;;;5.55;100.00;152787.22;5089346;28;20808;-77
2024/02/21 05:31:22;;;;;;;4.93;2.73;;;;;;;5.56;100.00;152789.75;5108736;28;20907;-77
2024/02/21 05:33:49;;;;;;;4.40;2.70;;;;;;;5.54;100.00;152784.63;5102861;28;20858;-76
2024/02/21 05:36:16;;;;;;;4.27;2.80;;;;;;;5.51;100.00;152776.88;5106482;28;21070;-76
2024/02/21 05:38:43;;;;;;;5.37;3.00;;;;;;;5.50;100.00;152774.31;5122185;27;20455;-76
2024/02/21 05:41:09;;;;;;;6.87;4.03;;;;;;;5.52;100.00;152779.47;5109725;28;20427;-77
2024/02/21 05:43:36;;;;;;;3.83;2.97;;;;;;;5.51;100.00;152778.19;5093245;28;20444;-76
2024/02/21 05:46:02;;;;;;;4.70;3.10;;;;;;;5.50;100.00;152774.31;5124982;27;20520;-76
2024/02/21 05:48:29;;;;;;;4.73;3.10;;;;;;;5.49;100.00;152771.72;5117702;27;20771;-76
2024/02/21 05:50:57;;;;;;;5.20;3.40;;;;;;;5.48;100.00;152769.19;5123933;27;20494;-77
2024/02/21 05:53:23;;;;;;;6.87;3.30;;;;;;;5.50;100.00;152774.31;5121944;27;20549;-76
2024/02/21 05:55:50;;;;;;;5.57;2.80;;;;;;;5.49;100.00;152771.72;5120680;27;20536;-76
2024/02/21 05:58:16;;;;;;;4.27;3.13;;;;;;;5.49;100.00;152773.03;5101337;28;20440;-76
2024/02/21 06:00:42;;;;;;;7.53;2.90;;;;;;;5.48;100.00;152769.19;5123472;27;20534;-76
2024/02/21 06:03:09;;;;;;;4.63;3.03;;;;;;;5.47;100.00;152766.59;5081013;27;20490;-76
2024/02/21 06:05:38;;;;;;;6.83;3.07;;;;;;;5.43;100.00;152757.53;5115193;27;20542;-78
2024/02/21 06:08:06;;;;;;;4.30;2.93;;;;;;;5.41;100.00;152751.09;5102711;27;20462;-77
2024/02/21 06:10:33;;;;;;;3.50;2.67;;;;;;;5.36;100.00;152738.22;5112347;27;20455;-77
2024/02/21 06:12:59;;;;;;;5.70;3.33;;;;;;;5.38;100.00;152743.34;5121245;27;20459;-78
2024/02/21 06:15:26;;;;;;;4.27;2.80;;;;;;;5.35;100.00;152736.91;5117381;27;20515;-78
2024/02/21 06:17:52;;;;;;;5.20;3.10;;;;;;;5.33;100.00;152730.47;5076017;27;20457;-77
2024/02/21 06:20:19;;;;;;;4.73;2.93;;;;;;;5.31;100.00;152726.63;5083732;27;20448;-77
2024/02/21 06:22:45;;;;;;;4.87;3.03;;;;;;;5.29;100.00;152721.47;5116816;27;20454;-77
2024/02/21 06:25:13;;;;;;;4.60;3.20;;;;;;;5.31;100.00;152725.31;5117494;27;20520;-76
2024/02/21 06:27:40;;;;;;;5.07;2.70;;;;;;;5.26;100.00;152712.44;5092122;27;20467;-77
2024/02/21 06:30:07;;;;;;;3.73;2.80;;;;;;;5.24;100.00;152707.28;5099207;27;20463;-78
2024/02/21 06:32:34;;;;;;;2.90;2.30;;;;;;;5.26;100.00;152713.75;5112731;27;20486;-77
2024/02/21 06:35:01;;;;;;;3.60;2.90;;;;;;;5.24;100.00;152707.28;5108855;27;20443;-76
2024/02/21 06:37:28;;;;;;;6.03;3.10;;;;;;;5.26;100.00;152712.44;5091966;27;21050;-77
2024/02/21 06:39:54;;;;;;;5.43;3.70;;;;;;;5.29;100.00;152720.19;5096899;27;20452;-77
2024/02/21 06:42:22;;;;;;;5.83;3.20;;;;;;;5.33;100.00;152730.47;5112020;27;20456;-77
2024/02/21 06:44:49;;;;;;;2.90;2.43;;;;;;;5.38;100.00;152743.34;5116170;27;20451;-76
2024/02/21 06:47:15;;;;;;;4.40;3.00;;;;;;;5.44;100.00;152758.84;5111199;27;20556;-76
2024/02/21 06:49:42;;;;;;;4.63;2.30;;;;;;;5.50;100.00;152774.31;5112107;27;20502;-76
2024/02/21 06:52:08;;;;;;;6.40;3.37;;;;;;;5.52;100.00;152779.47;5112840;27;20488;-76
2024/02/21 06:54:35;;;;;;;3.00;2.57;;;;;;;5.54;100.00;152785.91;5079894;28;20462;-77
2024/02/21 06:57:01;;;;;;;5.07;3.23;;;;;;;5.61;100.00;152801.41;5092841;27;20452;-76
2024/02/21 06:59:29;;;;;;;5.20;2.83;;;;;;;5.71;100.00;152828.47;5095977;27;20528;-76
2024/02/21 07:01:56;;;;;;;4.77;3.10;;;;;;;5.81;100.00;152854.28;5114909;27;20487;-76
2024/02/21 07:04:23;;;;;;;6.53;2.73;;;;;;;5.92;100.00;152882.69;5114089;27;20490;-76
2024/02/21 07:06:49;;;;;;;5.00;3.57;;;;;;;5.98;100.00;152898.16;5111123;27;20463;-76
2024/02/21 07:09:16;;;;;;;8.43;2.97;;;;;;;6.03;100.00;152909.78;5098270;27;20451;-76
2024/02/21 07:11:42;;;;;;;7.63;3.43;;;;;;;6.10;100.00;152929.13;5096463;27;21126;-76
2024/02/21 07:14:09;;;;;;;3.37;2.80;;;;;;;6.16;100.00;152942.03;5078955;27;20444;-76
2024/02/21 07:16:36;;;;;;;3.13;2.73;;;;;;;6.22;100.00;152958.81;5097372;27;20585;-76
2024/02/21 07:19:03;;;;;;;4.10;3.10;;;;;;;6.34;100.00;152988.47;5109612;27;20512;-76
2024/02/21 07:21:29;;;;;;;4.93;2.63;;;;;;;6.40;100.00;153005.28;5112188;27;20937;-76
2024/02/21 07:23:56;;;;;;;4.43;2.80;;;;;;;6.54;100.00;153040.13;5092025;27;20443;-76
2024/02/21 07:26:22;;;;;;;5.13;2.97;;;;;;;6.65;99.77;153069.78;5090168;28;20460;-76
2024/02/21 07:28:49;;;;;;;4.20;2.70;;;;;;;6.80;99.72;153107.22;5095309;28;20457;-76
2024/02/21 07:31:16;;;;;;;5.90;3.00;;;;;;;7.01;99.54;153161.44;5079397;28;21020;-76
2024/02/21 07:33:43;;;;;;;5.30;3.17;;;;;;;7.35;97.69;153249.25;5110037;28;20455;-76
2024/02/21 07:36:11;;;;;;;5.00;2.70;;;;;;;7.69;96.02;153334.47;5109277;28;20543;-76
2024/02/21 07:38:38;;;;;;;4.73;3.10;;;;;;;7.91;94.88;153392.63;5080882;28;20452;-76
2024/02/21 07:41:04;;;;;;;3.67;2.63;;;;;;;8.20;93.80;153464.97;5109740;28;20455;-76
2024/02/21 07:43:31;;;;;;;5.47;3.37;;;;;;;8.48;91.66;153538.69;5080645;28;20938;-76
2024/02/21 07:45:57;;;;;;;5.37;2.57;;;;;;;8.62;90.05;153573.59;5078158;28;20444;-77
2024/02/21 07:48:26;;;;;;;5.30;2.60;;;;;;;8.56;88.95;153558.06;5115265;28;20464;-76
2024/02/21 07:50:54;;;;;;;4.17;2.67;;;;;;;8.51;89.14;153545.13;5114897;28;20490;-77
2024/02/21 07:53:21;;;;;;;5.40;2.50;;;;;;;8.59;88.80;153565.81;5115549;28;20817;-77
2024/02/21 07:55:47;;;;;;;4.90;2.73;;;;;;;8.69;89.02;153590.38;5113260;28;20470;-76
2024/02/21 07:58:14;;;;;;;8.40;2.80;;;;;;;8.82;87.49;153623.97;5095974;28;20530;-76
2024/02/21 08:00:40;;;;;;;5.50;2.87;;;;;;;8.83;86.77;153626.59;5115049;28;20475;-76
2024/02/21 08:03:07;;;;;;;6.63;3.10;;;;;;;8.88;87.08;153639.50;5080756;28;20490;-77
2024/02/21 08:05:35;;;;;;;6.00;2.40;;;;;;;8.94;86.46;153656.34;5097539;28;20527;-76
2024/02/21 08:08:03;;;;;;;4.77;2.50;;;;;;;8.97;86.50;153664.09;5115686;28;20447;-76
2024/02/21 08:10:30;;;;;;;3.80;2.33;;;;;;;8.98;85.92;153665.34;5097512;28;20988;-77
2024/02/21 08:12:56;;;;;;;4.43;2.20;;;;;;;8.93;86.66;153653.72;5115414;28;20539;-77
2024/02/21 08:15:28;;;;;;;5.00;2.77;;;;;;;8.92;86.67;153649.88;5113086;28;20874;-77
2024/02/21 08:17:58;;;;;;;3.20;2.57;;;;;;;8.79;86.27;153616.25;5079459;28;20452;-77
2024/02/21 08:20:25;;;;;;;3.57;2.33;;;;;;;8.66;87.00;153583.91;5112051;28;20444;-76
2024/02/21 08:22:51;;;;;;;8.47;2.80;;;;;;;8.57;87.94;153560.66;5112281;28;20436;-77
2024/02/21 08:25:19;;;;;;;5.17;2.40;;;;;;;8.51;88.50;153546.44;5098234;27;20508;-77
2024/02/21 08:27:46;;;;;;;3.13;2.30;;;;;;;8.47;89.17;153536.06;5080070;27;20949;-77
2024/02/21 08:30:13;;;;;;;4.17;2.40;;;;;;;8.48;88.95;153538.69;5097831;27;20458;-76
2024/02/21 08:32:40;;;;;;;7.80;2.97;;;;;;;8.48;88.88;153538.69;5114400;27;20907;-77
2024/02/21 08:35:07;;;;;;;3.60;2.27;;;;;;;8.44;89.34;153528.34;5115970;27;20495;-77
2024/02/21 08:37:33;;;;;;;3.50;2.50;;;;;;;8.42;88.81;153523.16;5117445;27;20459;-77
2024/02/21 08:40:04;;;;;;;4.57;2.70;;;;;;;8.48;89.29;153538.69;5099023;27;20458;-77
2024/02/21 08:42:33;;;;;;;6.10;3.20;;;;;;;8.46;90.10;153533.53;5098121;27;20448;-77
2024/02/21 08:44:59;;;;;;;4.60;2.00;;;;;;;8.42;89.75;153521.84;5117367;27;20465;-77
2024/02/21 08:47:25;;;;;;;4.73;2.60;;;;;;;8.46;89.28;153533.53;5099491;27;21058;-77
2024/02/21 08:49:52;;;;;;;3.73;2.50;;;;;;;8.55;89.27;153556.75;5098967;27;20729;-77
2024/02/21 08:52:19;;;;;;;3.77;2.40;;;;;;;8.57;88.75;153561.97;5116647;27;20831;-77
2024/02/21 08:54:45;;;;;;;5.67;2.10;;;;;;;8.60;88.67;153568.44;5081700;27;20467;-77
2024/02/21 08:57:13;;;;;;;4.73;2.50;;;;;;;8.62;90.09;153572.28;5100052;27;20519;-77
2024/02/21 08:59:41;;;;;;;4.37;2.90;;;;;;;8.61;91.17;153569.69;5132002;27;20956;-77
2024/02/21 09:02:08;;;;;;;3.50;2.70;;;;;;;8.58;89.87;153564.53;5118263;27;20447;-77
2024/02/21 09:04:35;;;;;;;3.60;2.70;;;;;;;8.63;88.15;153576.13;5117246;27;20516;-77
2024/02/21 09:07:01;;;;;;;6.83;3.00;;;;;;;8.70;88.13;153592.97;5113434;27;20456;-77
2024/02/21 09:09:28;;;;;;;4.70;3.20;;;;;;;8.73;90.14;153602.03;5118406;27;20520;-77
2024/02/21 09:11:55;;;;;;;5.73;2.90;;;;;;;8.71;90.06;153596.81;5118389;27;20485;-77
2024/02/21 09:14:22;;;;;;;3.80;2.40;;;;;;;8.73;88.74;153600.72;5099809;27;20962;-77
2024/02/21 09:16:50;;;;;;;5.00;2.37;;;;;;;8.74;88.14;153603.28;5118364;27;20456;-77
2024/02/21 09:19:17;;;;;;;5.00;2.77;;;;;;;8.76;87.39;153608.50;5133847;27;20451;-77
2024/02/21 09:21:44;;;;;;;5.87;2.70;;;;;;;8.79;87.59;153616.25;5118313;27;20882;-77
2024/02/21 09:24:10;;;;;;;2.87;2.37;;;;;;;8.79;87.36;153616.25;5132804;27;21188;-77
2024/02/21 09:26:37;;;;;;;4.40;2.50;;;;;;;8.82;86.17;153623.97;5117303;27;20490;-77
2024/02/21 09:29:03;;;;;;;3.97;2.07;;;;;;;8.86;86.18;153634.34;5118371;27;20459;-76
2024/02/21 09:31:30;;;;;;;2.97;2.27;;;;;;;8.90;85.99;153644.66;5118264;27;20449;-77
2024/02/21 09:33:58;;;;;;;9.30;3.00;;;;;;;8.91;84.89;153648.56;5117924;27;20471;-77
2024/02/21 09:36:24;;;;;;;4.53;2.30;;;;;;;8.99;85.85;153667.97;5099412;27;20456;-77
2024/02/21 09:38:51;;;;;;;2.13;1.83;;;;;;;9.01;88.26;153673.13;5098278;27;20542;-77
2024/02/21 09:41:18;;;;;;;5.77;2.40;;;;;;;8.99;89.02;153667.97;5130837;27;20882;-77
2024/02/21 09:43:46;;;;;;;3.50;2.27;;;;;;;8.97;87.03;153662.81;5133004;27;20452;-76
2024/02/21 09:46:18;;;;;;;3.43;2.13;;;;;;;9.05;84.59;153683.50;5082881;27;21052;-77
2024/02/21 09:48:57;;;;;;;4.27;2.40;;;;;;;9.10;82.17;153696.41;5133967;27;21080;-77
2024/02/21 09:51:25;;;;;;;3.43;1.97;;;;;;;9.19;81.49;153719.69;5082075;27;20858;-77
2024/02/21 09:53:53;;;;;;;2.70;2.13;;;;;;;9.25;82.42;153735.22;5132723;27;21060;-76
2024/02/21 09:56:19;;;;;;;4.47;2.53;;;;;;;9.27;80.38;153740.38;5115489;27;20443;-76
2024/02/21 09:58:47;;;;;;;5.67;2.83;;;;;;;9.33;79.32;153755.91;5132227;27;20451;-77
2024/02/21 10:01:14;;;;;;;9.33;2.17;;;;;;;9.40;82.79;153772.75;5093805;28;20527;-77
2024/02/21 10:03:40;;;;;;;4.50;2.37;;;;;;;9.40;83.72;153772.75;5078059;28;20695;-77
2024/02/21 10:06:07;;;;;;;3.60;2.53;;;;;;;9.39;82.09;153771.44;5092830;28;20548;-77
2024/02/21 10:08:35;;;;;;;7.90;3.03;;;;;;;9.49;79.38;153796.00;5095381;28;20452;-78
2024/02/21 10:11:02;;;;;;;8.17;2.97;;;;;;;9.59;81.35;153823.16;5096665;28;20449;-77
2024/02/21 10:13:30;;;;;;;3.27;2.10;;;;;;;9.64;78.90;153836.09;5094622;28;20480;-77
2024/02/21 10:16:04;;;;;;;3.27;1.73;;;;;;;9.68;78.43;153846.47;5097295;28;20900;-78
2024/02/21 10:18:30;;;;;;;3.30;1.93;;;;;;;9.76;78.83;153867.19;5097056;28;20450;-78
2024/02/21 10:21:01;;;;;;;3.87;2.00;;;;;;;9.82;78.49;153882.69;5077383;28;20457;-77
2024/02/21 10:23:28;;;;;;;4.53;2.50;;;;;;;9.87;76.69;153893.06;5095628;28;20448;-78
2024/02/21 10:26:05;;;;;;;3.10;2.50;;;;;;;9.94;76.80;153911.16;5094512;28;20517;-78
2024/02/21 10:28:32;;;;;;;3.93;2.20;;;;;;;10.01;76.90;153929.25;5077748;28;21051;-78
2024/02/21 10:30:58;;;;;;;2.97;2.00;;;;;;;10.03;75.56;153934.47;5091899;28;20449;-77
2024/02/21 10:33:27;;;;;;;3.83;2.10;;;;;;;10.12;74.79;153957.72;5077832;28;20578;-78
2024/02/21 10:35:55;;;;;;;3.27;1.97;;;;;;;10.15;75.48;153965.56;5095738;28;20487;-78
2024/02/21 10:38:21;;;;;;;3.37;1.90;;;;;;;10.19;75.90;153975.94;5095348;28;20523;-78
2024/02/21 10:40:52;;;;;;;3.00;1.83;;;;;;;10.16;78.31;153968.16;5077651;28;20449;-78
2024/02/21 10:43:21;;;;;;;2.73;1.87;;;;;;;10.16;75.17;153968.16;5093415;28;20547;-77
2024/02/21 10:45:56;;;;;;;3.80;2.17;;;;;;;10.19;73.74;153975.94;5094695;28;20487;-77
2024/02/21 10:48:30;;;;;;;2.73;1.70;;;;;;;10.21;73.27;153982.41;5091201;28;20445;-77
2024/02/21 10:50:58;;;;;;;4.20;2.20;;;;;;;10.29;71.31;154003.13;5110094;27;20823;-77
2024/02/21 10:53:30;;;;;;;4.13;2.23;;;;;;;10.39;71.38;154027.69;5091778;28;20835;-78
2024/02/21 10:56:17;;;;;;;3.60;1.93;;;;;;;10.43;73.33;154038.09;5091353;28;20452;-77
2024/02/21 10:58:46;;;;;;;3.03;1.57;;;;;;;10.44;71.46;154039.34;5095648;28;20452;-77
2024/02/21 11:01:14;;;;;;;2.67;1.70;;;;;;;10.51;71.69;154058.75;5091375;28;20546;-78
2024/02/21 11:03:42;;;;;;;4.17;1.97;;;;;;;10.53;72.07;154063.97;5093977;28;20448;-77
2024/02/21 11:06:10;;;;;;;7.23;2.23;;;;;;;10.53;72.16;154062.66;5072244;28;20456;-77
2024/02/21 11:08:36;;;;;;;5.70;2.17;;;;;;;10.53;73.42;154063.97;5095228;28;20460;-77
2024/02/21 11:11:05;;;;;;;4.90;1.50;;;;;;;10.57;68.41;154074.31;5111093;27;20514;-77
2024/02/21 11:13:32;;;;;;;2.60;1.53;;;;;;;10.58;68.53;154075.59;5094346;28;21090;-78
2024/02/21 11:16:09;;;;;;;2.50;1.53;;;;;;;10.61;67.94;154084.69;5095409;28;20436;-77
2024/02/21 11:18:35;;;;;;;4.83;1.60;;;;;;;10.64;70.06;154091.16;5078456;28;20479;-78
2024/02/21 11:21:02;;;;;;;4.40;1.60;;;;;;;10.66;68.78;154097.63;5095034;28;20963;-77
2024/02/21 11:23:29;;;;;;;4.70;1.90;;;;;;;10.72;68.25;154113.13;5104974;27;20468;-78
2024/02/21 11:26:05;;;;;;;4.63;2.00;;;;;;;10.72;68.95;154111.88;5096527;28;20459;-77